createdAt,value
2022-09-15T00:00:47.167Z,25.80
2022-09-15T00:01:48.884Z,25.79
2022-09-15T00:02:50.632Z,25.79
2022-09-15T00:03:53.070Z,25.77
2022-09-15T00:04:54.761Z,25.72
2022-09-15T00:05:56.704Z,25.77
2022-09-15T00:06:58.397Z,25.76
2022-09-15T00:08:00.087Z,25.76
2022-09-15T00:09:02.546Z,25.75
2022-09-15T00:10:09.311Z,25.74
2022-09-15T00:11:17.716Z,25.75
2022-09-15T00:12:19.490Z,25.79
2022-09-15T00:13:22.486Z,25.76
2022-09-15T00:14:24.366Z,25.75
2022-09-15T00:15:26.082Z,25.73
2022-09-15T00:16:31.123Z,25.74
2022-09-15T00:17:32.927Z,25.76
2022-09-15T00:18:35.935Z,25.74
2022-09-15T00:19:37.680Z,25.75
2022-09-15T00:20:43.951Z,25.72
2022-09-15T00:21:45.834Z,25.75
2022-09-15T00:22:48.978Z,25.72
2022-09-15T00:23:51.022Z,25.70
2022-09-15T00:24:52.811Z,25.73
2022-09-15T00:25:54.566Z,25.71
2022-09-15T00:26:56.885Z,25.71
2022-09-15T00:27:58.599Z,25.71
2022-09-15T00:29:01.439Z,25.70
2022-09-15T00:30:04.621Z,25.71
2022-09-15T00:31:10.421Z,25.67
2022-09-15T00:32:12.208Z,25.72
2022-09-15T00:33:15.668Z,25.71
2022-09-15T00:34:17.422Z,25.71
2022-09-15T00:35:19.130Z,25.68
2022-09-15T00:36:22.322Z,25.69
2022-09-15T00:37:24.054Z,25.70
2022-09-15T00:38:25.775Z,25.69
2022-09-15T00:39:27.588Z,25.64
2022-09-15T00:40:29.408Z,25.65
2022-09-15T00:41:31.595Z,25.64
2022-09-15T00:42:33.958Z,25.68
2022-09-15T00:43:54.551Z,25.72
2022-09-15T00:44:56.257Z,25.73
2022-09-15T00:45:57.983Z,25.71
2022-09-15T00:47:18.203Z,25.69
2022-09-15T00:48:22.968Z,25.69
2022-09-15T00:49:26.663Z,25.71
2022-09-15T00:50:28.487Z,25.64
2022-09-15T00:51:40.378Z,25.66
2022-09-15T00:52:53.222Z,25.66
2022-09-15T00:53:57.642Z,25.70
2022-09-15T00:55:09.388Z,25.71
2022-09-15T00:56:12.661Z,25.70
2022-09-15T00:57:22.536Z,25.69
2022-09-15T00:58:30.773Z,25.68
2022-09-15T00:59:35.303Z,25.68
2022-09-15T01:00:39.682Z,25.68
2022-09-15T01:01:43.477Z,25.67
2022-09-15T01:02:47.310Z,25.66
2022-09-15T01:03:48.974Z,25.62
2022-09-15T01:04:58.355Z,25.63
2022-09-15T01:06:08.238Z,25.67
2022-09-15T01:07:14.926Z,25.63
2022-09-15T01:08:26.122Z,25.67
2022-09-15T01:09:46.219Z,25.69
2022-09-15T01:10:47.959Z,25.72
2022-09-15T01:11:50.239Z,25.69
2022-09-15T01:12:54.766Z,25.66
2022-09-15T01:13:56.706Z,25.65
2022-09-15T01:15:01.814Z,25.63
2022-09-15T01:16:15.320Z,25.64
2022-09-15T01:17:17.119Z,25.67
2022-09-15T01:18:27.920Z,25.64
2022-09-15T01:19:52.814Z,25.71
2022-09-15T01:21:06.421Z,25.71
2022-09-15T01:22:40.913Z,25.70
2022-09-15T01:23:51.972Z,25.73
2022-09-15T01:25:02.878Z,25.70
2022-09-15T01:26:42.251Z,25.71
2022-09-15T01:27:56.479Z,25.74
2022-09-15T01:29:16.530Z,25.71
2022-09-15T01:30:23.131Z,25.69
2022-09-15T01:32:03.008Z,25.70
2022-09-15T01:33:20.188Z,25.74
2022-09-15T01:34:22.700Z,25.71
2022-09-15T01:35:42.335Z,25.67
2022-09-15T01:36:54.447Z,25.65
2022-09-15T01:38:02.470Z,25.66
2022-09-15T01:39:13.211Z,25.64
2022-09-15T01:40:16.022Z,25.63
2022-09-15T01:41:34.523Z,25.61
2022-09-15T01:42:37.982Z,25.63
2022-09-15T01:43:50.327Z,25.61
2022-09-15T01:44:58.270Z,25.62
2022-09-15T01:46:02.153Z,25.62
2022-09-15T01:47:08.145Z,25.55
2022-09-15T01:48:11.075Z,25.60
2022-09-15T01:49:18.198Z,25.58
2022-09-15T01:50:37.331Z,25.62
2022-09-15T01:51:40.307Z,25.54
2022-09-15T01:52:45.963Z,25.56
2022-09-15T01:53:49.751Z,25.60
2022-09-15T01:54:56.007Z,25.58
2022-09-15T01:56:05.297Z,25.58
2022-09-15T01:57:07.102Z,25.60
2022-09-15T01:58:09.259Z,25.58
2022-09-15T01:59:11.407Z,25.56
2022-09-15T02:00:13.531Z,25.55
2022-09-15T02:01:33.935Z,25.54
2022-09-15T02:02:44.101Z,25.60
2022-09-15T02:04:18.424Z,25.59
2022-09-15T02:05:32.018Z,25.64
2022-09-15T02:06:43.303Z,25.61
2022-09-15T02:07:45.533Z,25.63
2022-09-15T02:09:02.777Z,25.60
2022-09-15T02:10:19.371Z,25.61
2022-09-15T02:11:28.389Z,25.61
2022-09-15T02:12:43.427Z,25.60
2022-09-15T02:14:03.010Z,25.60
2022-09-15T02:15:10.658Z,25.61
2022-09-15T02:16:20.238Z,25.54
2022-09-15T02:17:24.006Z,25.59
2022-09-15T02:18:39.711Z,25.54
2022-09-15T02:19:47.940Z,25.58
2022-09-15T02:20:58.646Z,25.57
2022-09-15T02:22:27.904Z,25.62
2022-09-15T02:23:37.815Z,25.57
2022-09-15T02:24:49.510Z,25.60
2022-09-15T02:25:55.707Z,25.58
2022-09-15T02:26:59.613Z,25.56
2022-09-15T02:28:07.080Z,25.55
2022-09-15T02:29:13.208Z,25.55
2022-09-15T02:30:16.944Z,25.53
2022-09-15T02:31:21.767Z,25.41
2022-09-15T02:32:26.186Z,25.52
2022-09-15T02:33:33.038Z,25.45
2022-09-15T02:34:39.778Z,25.52
2022-09-15T02:35:42.334Z,25.52
2022-09-15T02:36:45.368Z,25.53
2022-09-15T02:37:48.482Z,25.53
2022-09-15T02:38:54.313Z,25.45
2022-09-15T02:40:00.853Z,25.52
2022-09-15T02:41:02.995Z,25.52
2022-09-15T02:42:05.014Z,25.53
2022-09-15T02:43:11.380Z,25.51
2022-09-15T02:44:13.333Z,25.53
2022-09-15T02:45:15.007Z,25.54
2022-09-15T02:46:20.070Z,25.48
2022-09-15T02:47:22.287Z,25.52
2022-09-15T02:48:25.335Z,25.53
2022-09-15T02:49:27.087Z,25.53
2022-09-15T02:50:28.858Z,25.51
2022-09-15T02:51:31.299Z,25.49
2022-09-15T02:52:33.151Z,25.33
2022-09-15T02:53:36.595Z,25.52
2022-09-15T02:54:38.607Z,25.51
2022-09-15T02:55:40.330Z,25.47
2022-09-15T02:56:42.162Z,25.50
2022-09-15T02:57:43.982Z,25.50
2022-09-15T02:58:45.631Z,25.50
2022-09-15T03:00:05.859Z,25.50
2022-09-15T03:01:08.660Z,25.55
2022-09-15T03:02:11.231Z,25.54
2022-09-15T03:03:13.506Z,25.53
2022-09-15T03:04:15.283Z,25.39
2022-09-15T03:05:19.926Z,25.50
2022-09-15T03:06:21.814Z,25.44
2022-09-15T03:07:25.076Z,25.49
2022-09-15T03:08:28.246Z,25.50
2022-09-15T03:09:30.089Z,25.50
2022-09-15T03:10:33.596Z,25.46
2022-09-15T03:11:36.350Z,25.48
2022-09-15T03:12:47.186Z,25.49
2022-09-15T03:13:52.897Z,25.51
2022-09-15T03:14:54.618Z,25.46
2022-09-15T03:15:56.333Z,25.50
2022-09-15T03:16:58.978Z,25.44
2022-09-15T03:18:02.235Z,25.45
2022-09-15T03:19:04.466Z,25.48
2022-09-15T03:20:08.023Z,25.47
2022-09-15T03:21:14.085Z,25.48
2022-09-15T03:22:15.865Z,25.49
2022-09-15T03:23:17.543Z,25.41
2022-09-15T03:24:19.891Z,25.48
2022-09-15T03:25:22.150Z,25.43
2022-09-15T03:26:23.974Z,25.41
2022-09-15T03:27:25.751Z,25.45
2022-09-15T03:28:28.346Z,25.42
2022-09-15T03:29:30.036Z,25.46
2022-09-15T03:30:31.700Z,25.46
2022-09-15T03:31:33.449Z,25.46
2022-09-15T03:32:35.632Z,25.46
2022-09-15T03:33:38.768Z,25.46
2022-09-15T03:34:40.619Z,25.47
2022-09-15T03:35:42.343Z,25.46
2022-09-15T03:36:44.159Z,25.39
2022-09-15T03:37:45.965Z,25.40
2022-09-15T03:38:47.757Z,25.40
2022-09-15T03:39:49.489Z,25.45
2022-09-15T03:41:02.891Z,25.44
2022-09-15T03:42:05.115Z,25.48
2022-09-15T03:43:06.799Z,25.48
2022-09-15T03:44:08.626Z,25.47
2022-09-15T03:45:10.438Z,25.46
2022-09-15T03:46:12.871Z,25.46
2022-09-15T03:47:14.719Z,25.44
2022-09-15T03:48:17.418Z,25.44
2022-09-15T03:49:19.313Z,25.45
2022-09-15T03:50:21.118Z,25.43
2022-09-15T03:51:23.242Z,25.44
2022-09-15T03:52:24.972Z,25.44
2022-09-15T03:53:26.774Z,25.43
2022-09-15T03:54:28.472Z,25.42
2022-09-15T03:55:30.282Z,25.42
2022-09-15T03:56:33.014Z,25.41
2022-09-15T03:57:34.754Z,25.39
2022-09-15T03:58:36.523Z,25.40
2022-09-15T03:59:38.335Z,25.42
2022-09-15T04:00:44.022Z,25.35
2022-09-15T04:01:47.214Z,25.39
2022-09-15T04:02:49.005Z,25.43
2022-09-15T04:03:51.658Z,25.41
2022-09-15T04:04:53.482Z,25.38
2022-09-15T04:05:55.247Z,25.41
2022-09-15T04:06:56.924Z,25.41
2022-09-15T04:07:58.659Z,25.41
2022-09-15T04:09:00.570Z,25.41
2022-09-15T04:10:02.538Z,25.41
2022-09-15T04:11:06.090Z,25.40
2022-09-15T04:12:07.930Z,25.41
2022-09-15T04:13:09.846Z,25.41
2022-09-15T04:14:12.139Z,25.40
2022-09-15T04:15:13.882Z,25.38
2022-09-15T04:16:19.017Z,25.40
2022-09-15T04:17:20.770Z,25.33
2022-09-15T04:18:22.527Z,25.42
2022-09-15T04:19:24.302Z,25.35
2022-09-15T04:20:26.043Z,25.40
2022-09-15T04:21:27.806Z,25.39
2022-09-15T04:22:32.677Z,25.39
2022-09-15T04:23:35.290Z,25.37
2022-09-15T04:24:36.979Z,25.32
2022-09-15T04:25:38.642Z,25.39
2022-09-15T04:26:40.400Z,25.32
2022-09-15T04:27:42.153Z,25.37
2022-09-15T04:28:43.890Z,25.39
2022-09-15T04:29:46.239Z,25.37
2022-09-15T04:30:47.958Z,25.37
2022-09-15T04:31:50.617Z,25.35
2022-09-15T04:32:52.527Z,25.34
2022-09-15T04:33:55.956Z,25.37
2022-09-15T04:34:57.778Z,25.37
2022-09-15T04:36:04.592Z,25.37
2022-09-15T04:37:06.282Z,25.39
2022-09-15T04:38:08.059Z,25.38
2022-09-15T04:39:09.944Z,25.38
2022-09-15T04:40:11.842Z,25.38
2022-09-15T04:41:14.291Z,25.36
2022-09-15T04:42:16.077Z,25.36
2022-09-15T04:43:17.818Z,25.31
2022-09-15T04:44:19.522Z,25.36
2022-09-15T04:45:21.652Z,25.35
2022-09-15T04:46:23.464Z,25.36
2022-09-15T04:47:25.198Z,25.36
2022-09-15T04:48:27.367Z,25.35
2022-09-15T04:49:29.049Z,25.35
2022-09-15T04:50:32.562Z,25.33
2022-09-15T04:51:36.958Z,25.32
2022-09-15T04:52:41.807Z,25.37
2022-09-15T04:53:44.250Z,25.33
2022-09-15T04:54:46.047Z,25.35
2022-09-15T04:55:47.725Z,25.34
2022-09-15T04:56:49.507Z,25.34
2022-09-15T04:57:51.239Z,25.33
2022-09-15T04:59:03.534Z,25.33
2022-09-15T05:00:07.612Z,25.34
2022-09-15T05:01:15.123Z,25.35
2022-09-15T05:02:17.148Z,25.36
2022-09-15T05:03:18.885Z,25.35
2022-09-15T05:04:20.864Z,25.33
2022-09-15T05:05:23.243Z,25.32
2022-09-15T05:06:27.503Z,25.27
2022-09-15T05:07:29.224Z,25.32
2022-09-15T05:08:30.884Z,25.33
2022-09-15T05:09:32.663Z,25.32
2022-09-15T05:10:35.040Z,25.26
2022-09-15T05:11:36.784Z,25.35
2022-09-15T05:12:38.734Z,25.29
2022-09-15T05:13:41.385Z,25.38
2022-09-15T05:14:43.082Z,25.40
2022-09-15T05:15:45.170Z,25.41
2022-09-15T05:16:46.864Z,25.44
2022-09-15T05:17:49.914Z,25.46
2022-09-15T05:18:54.149Z,25.49
2022-09-15T05:19:55.870Z,25.53
2022-09-15T05:21:01.765Z,25.55
2022-09-15T05:22:03.568Z,25.60
2022-09-15T05:23:05.255Z,25.61
2022-09-15T05:24:07.315Z,25.63
2022-09-15T05:25:09.458Z,25.66
2022-09-15T05:26:17.032Z,25.69
2022-09-15T05:27:18.967Z,25.74
2022-09-15T05:28:20.697Z,25.75
2022-09-15T05:29:22.533Z,25.80
2022-09-15T05:30:37.573Z,25.83
2022-09-15T05:31:39.825Z,25.90
2022-09-15T05:32:41.870Z,25.91
2022-09-15T05:33:44.095Z,25.93
2022-09-15T05:34:45.859Z,25.97
2022-09-15T05:35:55.835Z,25.99
2022-09-15T05:36:57.514Z,26.04
2022-09-15T05:37:59.210Z,26.00
2022-09-15T05:39:01.913Z,26.07
2022-09-15T05:40:08.290Z,26.11
2022-09-15T05:41:12.186Z,26.15
2022-09-15T05:42:13.898Z,26.18
2022-09-15T05:43:16.510Z,26.19
2022-09-15T05:44:18.329Z,26.16
2022-09-15T05:45:20.001Z,26.24
2022-09-15T05:46:22.566Z,26.26
2022-09-15T05:47:24.474Z,26.28
2022-09-15T05:48:26.368Z,26.31
2022-09-15T05:49:29.591Z,26.33
2022-09-15T05:50:31.475Z,26.34
2022-09-15T05:51:33.187Z,26.37
2022-09-15T05:52:35.963Z,26.39
2022-09-15T05:53:38.426Z,26.41
2022-09-15T05:54:40.347Z,26.42
2022-09-15T05:55:42.054Z,26.44
2022-09-15T05:56:43.783Z,26.46
2022-09-15T05:57:46.116Z,26.47
2022-09-15T05:58:49.231Z,26.47
2022-09-15T05:59:50.935Z,26.50
2022-09-15T06:00:55.977Z,26.52
2022-09-15T06:01:57.708Z,26.53
2022-09-15T06:02:59.620Z,26.54
2022-09-15T06:04:01.543Z,26.55
2022-09-15T06:05:03.559Z,26.51
2022-09-15T06:06:06.603Z,26.56
2022-09-15T06:07:08.275Z,26.58
2022-09-15T06:08:10.653Z,26.59
2022-09-15T06:09:12.422Z,26.60
2022-09-15T06:10:14.186Z,26.60
2022-09-15T06:11:21.829Z,26.55
2022-09-15T06:12:23.780Z,26.64
2022-09-15T06:13:25.576Z,26.44
2022-09-15T06:14:27.323Z,26.64
2022-09-15T06:15:29.087Z,26.65
2022-09-15T06:16:34.036Z,26.61
2022-09-15T06:17:35.871Z,26.66
2022-09-15T06:18:39.175Z,26.66
2022-09-15T06:19:40.970Z,26.67
2022-09-15T06:20:42.699Z,26.67
2022-09-15T06:21:44.407Z,26.67
2022-09-15T06:22:46.168Z,26.68
2022-09-15T06:23:55.918Z,26.67
2022-09-15T06:24:57.602Z,26.70
2022-09-15T06:26:14.385Z,26.70
2022-09-15T06:27:16.103Z,26.74
2022-09-15T06:28:17.938Z,26.73
2022-09-15T06:29:19.831Z,26.72
2022-09-15T06:30:21.523Z,26.73
2022-09-15T06:31:24.409Z,26.71
2022-09-15T06:32:26.555Z,26.71
2022-09-15T06:33:28.341Z,26.70
2022-09-15T06:34:30.061Z,26.72
2022-09-15T06:35:32.122Z,26.69
2022-09-15T06:36:33.886Z,26.72
2022-09-15T06:37:35.778Z,26.72
2022-09-15T06:38:38.851Z,26.72
2022-09-15T06:39:40.830Z,26.74
2022-09-15T06:40:42.538Z,26.71
2022-09-15T06:42:02.614Z,26.74
2022-09-15T06:43:05.353Z,26.75
2022-09-15T06:44:07.090Z,26.70
2022-09-15T06:45:09.055Z,26.77
2022-09-15T06:46:13.941Z,26.74
2022-09-15T06:47:15.832Z,26.77
2022-09-15T06:48:24.376Z,26.77
2022-09-15T06:49:26.937Z,26.73
2022-09-15T06:50:28.955Z,26.77
2022-09-15T06:51:35.476Z,26.74
2022-09-15T06:52:37.268Z,26.74
2022-09-15T06:53:40.224Z,26.77
2022-09-15T06:54:42.052Z,26.79
2022-09-15T06:55:43.706Z,26.69
2022-09-15T06:56:45.515Z,26.77
2022-09-15T06:57:47.345Z,26.78
2022-09-15T06:58:49.507Z,26.75
2022-09-15T06:59:51.418Z,26.73
2022-09-15T07:00:53.154Z,26.78
2022-09-15T07:01:55.465Z,26.79
2022-09-15T07:02:57.486Z,26.80
2022-09-15T07:04:01.390Z,26.78
2022-09-15T07:05:03.574Z,26.73
2022-09-15T07:06:06.639Z,26.78
2022-09-15T07:07:08.615Z,26.80
2022-09-15T07:08:10.324Z,26.81
2022-09-15T07:09:12.196Z,26.80
2022-09-15T07:10:13.944Z,26.80
2022-09-15T07:11:16.115Z,26.80
2022-09-15T07:12:17.810Z,26.81
2022-09-15T07:13:19.457Z,26.80
2022-09-15T07:14:21.201Z,26.75
2022-09-15T07:15:25.071Z,26.81
2022-09-15T07:16:26.848Z,26.80
2022-09-15T07:17:29.275Z,26.76
2022-09-15T07:18:32.068Z,26.81
2022-09-15T07:19:33.932Z,26.78
2022-09-15T07:20:39.203Z,26.80
2022-09-15T07:21:40.966Z,26.72
2022-09-15T07:22:44.272Z,26.82
2022-09-15T07:23:47.046Z,26.82
2022-09-15T07:24:48.855Z,26.83
2022-09-15T07:25:50.599Z,26.77
2022-09-15T07:26:52.440Z,26.81
2022-09-15T07:27:54.225Z,26.80
2022-09-15T07:29:01.175Z,26.81
2022-09-15T07:30:03.858Z,26.83
2022-09-15T07:31:08.018Z,26.83
2022-09-15T07:32:09.905Z,26.80
2022-09-15T07:33:13.541Z,26.82
2022-09-15T07:34:15.238Z,26.84
2022-09-15T07:35:17.043Z,26.83
2022-09-15T07:36:19.229Z,26.83
2022-09-15T07:37:20.998Z,26.80
2022-09-15T07:38:22.790Z,26.78
2022-09-15T07:39:24.459Z,26.84
2022-09-15T07:40:27.236Z,26.84
2022-09-15T07:41:30.997Z,26.84
2022-09-15T07:42:35.450Z,26.80
2022-09-15T07:43:37.867Z,26.87
2022-09-15T07:44:39.535Z,26.87
2022-09-15T07:45:41.464Z,26.86
2022-09-15T07:46:43.392Z,26.81
2022-09-15T07:47:45.060Z,26.87
2022-09-15T07:48:49.086Z,26.86
2022-09-15T07:49:50.802Z,26.82
2022-09-15T07:50:52.551Z,26.88
2022-09-15T07:51:54.282Z,26.86
2022-09-15T07:52:56.903Z,26.87
2022-09-15T07:53:58.739Z,26.83
2022-09-15T07:55:00.529Z,26.89
2022-09-15T07:56:02.413Z,26.88
2022-09-15T07:57:06.481Z,26.80
2022-09-15T07:58:08.491Z,26.90
2022-09-15T07:59:10.399Z,26.90
2022-09-15T08:00:12.771Z,26.90
2022-09-15T08:01:15.957Z,26.89
2022-09-15T08:02:20.172Z,26.84
2022-09-15T08:03:21.982Z,26.90
2022-09-15T08:04:24.944Z,26.90
2022-09-15T08:05:28.635Z,26.89
2022-09-15T08:06:30.413Z,26.91
2022-09-15T08:07:32.313Z,26.91
2022-09-15T08:08:34.234Z,26.90
2022-09-15T08:09:37.674Z,26.90
2022-09-15T08:10:41.308Z,26.90
2022-09-15T08:11:44.216Z,26.91
2022-09-15T08:12:45.958Z,26.92
2022-09-15T08:13:49.755Z,26.90
2022-09-15T08:14:51.528Z,26.88
2022-09-15T08:15:53.482Z,26.84
2022-09-15T08:16:55.242Z,26.91
2022-09-15T08:17:56.914Z,26.90
2022-09-15T08:18:58.766Z,26.88
2022-09-15T08:20:00.521Z,26.91
2022-09-15T08:21:12.096Z,26.90
2022-09-15T08:22:14.191Z,26.93
2022-09-15T08:23:16.038Z,26.93
2022-09-15T08:24:17.807Z,26.92
2022-09-15T08:25:19.519Z,26.87
2022-09-15T08:26:21.933Z,26.91
2022-09-15T08:27:23.739Z,26.92
2022-09-15T08:28:26.391Z,26.92
2022-09-15T08:29:29.283Z,26.91
2022-09-15T08:30:31.327Z,26.87
2022-09-15T08:31:33.143Z,26.91
2022-09-15T08:32:34.851Z,26.92
2022-09-15T08:33:36.663Z,26.90
2022-09-15T08:34:38.493Z,26.92
2022-09-15T08:35:40.165Z,26.92
2022-09-15T08:36:42.581Z,26.92
2022-09-15T08:37:44.884Z,26.91
2022-09-15T08:38:47.230Z,26.86
2022-09-15T08:39:48.958Z,26.91
2022-09-15T08:40:55.872Z,26.93
2022-09-15T08:42:00.715Z,26.91
2022-09-15T08:43:12.968Z,26.95
2022-09-15T08:44:23.916Z,26.99
2022-09-15T08:45:36.224Z,26.98
2022-09-15T08:46:48.510Z,26.99
2022-09-15T08:47:56.153Z,26.99
2022-09-15T08:49:08.371Z,26.99
2022-09-15T08:50:31.267Z,27.02
2022-09-15T08:51:42.230Z,27.03
2022-09-15T08:53:06.910Z,27.03
2022-09-15T08:54:16.931Z,26.98
2022-09-15T08:55:27.940Z,26.96
2022-09-15T08:56:30.686Z,27.02
2022-09-15T08:57:32.489Z,26.94
2022-09-15T08:58:37.896Z,26.98
2022-09-15T08:59:40.072Z,27.00
2022-09-15T09:00:42.631Z,26.99
2022-09-15T09:02:12.427Z,27.03
2022-09-15T09:03:31.535Z,27.05
2022-09-15T09:05:10.547Z,27.10
2022-09-15T09:06:34.803Z,27.11
2022-09-15T09:08:10.113Z,27.15
2022-09-15T09:09:23.764Z,27.16
2022-09-15T09:10:56.850Z,27.12
2022-09-15T09:12:16.897Z,27.12
2022-09-15T09:13:24.468Z,27.10
2022-09-15T09:14:28.857Z,27.06
2022-09-15T09:16:09.510Z,27.09
2022-09-15T09:17:36.522Z,27.15
2022-09-15T09:19:06.239Z,27.16
2022-09-15T09:20:33.407Z,27.15
2022-09-15T09:21:40.170Z,27.13
2022-09-15T09:22:45.259Z,27.09
2022-09-15T09:23:57.599Z,27.06
2022-09-15T09:25:08.539Z,27.05
2022-09-15T09:26:23.189Z,27.11
2022-09-15T09:27:29.715Z,27.05
2022-09-15T09:28:35.638Z,27.04
2022-09-15T09:29:45.042Z,26.85
2022-09-15T09:30:48.845Z,27.04
2022-09-15T09:31:53.635Z,26.83
2022-09-15T09:33:15.303Z,27.03
2022-09-15T09:34:31.812Z,27.09
2022-09-15T09:35:46.581Z,27.08
2022-09-15T09:37:09.316Z,27.09
2022-09-15T09:38:25.347Z,27.11
2022-09-15T09:39:28.378Z,27.11
2022-09-15T09:40:32.865Z,27.10
2022-09-15T09:41:39.008Z,27.08
2022-09-15T09:42:42.046Z,27.02
2022-09-15T09:43:47.471Z,26.99
2022-09-15T09:44:49.387Z,27.08
2022-09-15T09:45:51.912Z,27.06
2022-09-15T09:46:53.822Z,27.06
2022-09-15T09:48:01.823Z,27.05
2022-09-15T09:49:23.118Z,27.10
2022-09-15T09:50:51.164Z,27.18
2022-09-15T09:52:02.452Z,27.11
2022-09-15T09:53:29.009Z,27.18
2022-09-15T09:54:33.292Z,27.17
2022-09-15T09:55:35.112Z,27.14
2022-09-15T09:56:36.811Z,27.13
2022-09-15T09:57:40.669Z,27.10
2022-09-15T09:58:43.494Z,27.11
2022-09-15T09:59:47.807Z,27.10
2022-09-15T10:00:50.640Z,27.11
2022-09-15T10:02:13.146Z,27.13
2022-09-15T10:03:25.515Z,27.16
2022-09-15T10:04:29.823Z,27.10
2022-09-15T10:05:31.652Z,27.12
2022-09-15T10:06:34.232Z,27.12
2022-09-15T10:07:43.842Z,27.13
2022-09-15T10:09:04.055Z,27.15
2022-09-15T10:10:06.583Z,27.17
2022-09-15T10:11:10.474Z,27.14
2022-09-15T10:12:38.464Z,27.14
2022-09-15T10:13:52.534Z,27.18
2022-09-15T10:14:57.302Z,27.14
2022-09-15T10:16:02.319Z,27.18
2022-09-15T10:17:13.971Z,27.18
2022-09-15T10:18:27.771Z,27.20
2022-09-15T10:19:32.711Z,27.19
2022-09-15T10:20:40.887Z,27.16
2022-09-15T10:21:42.711Z,27.18
2022-09-15T10:22:44.572Z,27.17
2022-09-15T10:23:46.314Z,27.16
2022-09-15T10:24:50.159Z,27.15
2022-09-15T10:25:59.410Z,27.14
2022-09-15T10:27:37.075Z,27.24
2022-09-15T10:28:38.859Z,27.25
2022-09-15T10:29:40.602Z,27.22
2022-09-15T10:31:01.562Z,27.23
2022-09-15T10:32:16.701Z,27.24
2022-09-15T10:33:23.179Z,27.23
2022-09-15T10:34:32.404Z,27.18
2022-09-15T10:35:34.211Z,27.21
2022-09-15T10:36:36.015Z,27.20
2022-09-15T10:37:43.462Z,27.18
2022-09-15T10:39:00.324Z,27.22
2022-09-15T10:40:38.306Z,27.23
2022-09-15T10:41:54.178Z,27.28
2022-09-15T10:43:19.371Z,27.29
2022-09-15T10:44:38.135Z,27.29
2022-09-15T10:45:46.981Z,27.20
2022-09-15T10:46:54.647Z,27.25
2022-09-15T10:48:08.524Z,27.23
2022-09-15T10:49:21.442Z,27.25
2022-09-15T10:50:32.510Z,27.24
2022-09-15T10:51:40.440Z,27.24
2022-09-15T10:53:22.660Z,27.23
2022-09-15T10:54:54.330Z,27.31
2022-09-15T10:56:15.511Z,27.28
2022-09-15T10:57:58.563Z,27.32
2022-09-15T10:59:34.264Z,27.35
2022-09-15T11:00:46.056Z,27.31
2022-09-15T11:01:53.754Z,27.28
2022-09-15T11:03:16.515Z,27.26
2022-09-15T11:05:05.834Z,27.30
2022-09-15T11:06:26.655Z,27.31
2022-09-15T11:08:07.247Z,27.33
2022-09-15T11:09:35.291Z,27.34
2022-09-15T11:11:06.386Z,27.34
2022-09-15T11:12:29.476Z,27.31
2022-09-15T11:14:08.783Z,27.31
2022-09-15T11:15:44.476Z,27.34
2022-09-15T11:17:07.389Z,27.31
2022-09-15T11:18:41.254Z,27.28
2022-09-15T11:20:01.597Z,27.30
2022-09-15T11:21:30.875Z,27.23
2022-09-15T11:22:47.297Z,27.26
2022-09-15T11:24:18.636Z,27.27
2022-09-15T11:25:28.302Z,27.26
2022-09-15T11:26:40.519Z,27.25
2022-09-15T11:27:49.423Z,27.23
2022-09-15T11:29:12.135Z,27.24
2022-09-15T11:30:22.322Z,27.24
2022-09-15T11:31:34.407Z,27.22
2022-09-15T11:32:48.180Z,27.23
2022-09-15T11:34:03.276Z,27.22
2022-09-15T11:35:33.128Z,27.23
2022-09-15T11:36:44.913Z,27.19
2022-09-15T11:37:50.761Z,27.23
2022-09-15T11:39:05.707Z,27.17
2022-09-15T11:40:26.332Z,27.25
2022-09-15T11:41:38.841Z,27.23
2022-09-15T11:42:49.417Z,27.22
2022-09-15T11:43:55.569Z,27.19
2022-09-15T11:45:00.052Z,27.18
2022-09-15T11:46:08.477Z,27.18
2022-09-15T11:47:30.708Z,27.19
2022-09-15T11:49:07.921Z,27.21
2022-09-15T11:50:32.852Z,27.29
2022-09-15T11:51:43.014Z,27.23
2022-09-15T11:52:44.662Z,27.22
2022-09-15T11:53:52.039Z,27.19
2022-09-15T11:55:18.387Z,27.15
2022-09-15T11:56:27.792Z,27.15
2022-09-15T11:57:44.425Z,27.21
2022-09-15T11:59:11.938Z,27.16
2022-09-15T12:00:15.209Z,27.21
2022-09-15T12:01:28.272Z,27.16
2022-09-15T12:02:49.287Z,27.18
2022-09-15T12:04:02.486Z,27.22
2022-09-15T12:05:17.519Z,27.20
2022-09-15T12:06:45.589Z,27.23
2022-09-15T12:08:02.820Z,27.23
2022-09-15T12:09:06.999Z,27.21
2022-09-15T12:10:21.908Z,27.19
2022-09-15T12:11:26.503Z,27.16
2022-09-15T12:12:30.736Z,27.13
2022-09-15T12:13:33.456Z,27.15
2022-09-15T12:14:35.164Z,27.13
2022-09-15T12:15:38.265Z,27.06
2022-09-15T12:16:40.067Z,27.12
2022-09-15T12:17:52.680Z,27.11
2022-09-15T12:18:57.560Z,27.13
2022-09-15T12:20:25.665Z,27.16
2022-09-15T12:21:34.786Z,27.19
2022-09-15T12:22:53.685Z,27.19
2022-09-15T12:24:17.189Z,27.19
2022-09-15T12:25:24.523Z,27.16
2022-09-15T12:26:27.793Z,27.18
2022-09-15T12:27:29.890Z,27.15
2022-09-15T12:28:39.386Z,27.06
2022-09-15T12:29:49.210Z,27.14
2022-09-15T12:31:12.359Z,27.18
2022-09-15T12:32:28.904Z,27.17
2022-09-15T12:33:42.700Z,27.19
2022-09-15T12:35:01.344Z,27.20
2022-09-15T12:36:38.456Z,27.25
2022-09-15T12:37:46.458Z,27.21
2022-09-15T12:38:49.442Z,27.17
2022-09-15T12:39:51.855Z,27.14
2022-09-15T12:40:59.590Z,27.12
2022-09-15T12:42:01.325Z,27.13
2022-09-15T12:43:16.863Z,27.03
2022-09-15T12:44:26.308Z,27.13
2022-09-15T12:45:31.102Z,27.12
2022-09-15T12:46:33.155Z,27.11
2022-09-15T12:47:57.624Z,27.15
2022-09-15T12:49:03.194Z,27.14
2022-09-15T12:50:29.284Z,27.14
2022-09-15T12:51:31.280Z,27.11
2022-09-15T12:52:43.642Z,27.13
2022-09-15T12:53:58.357Z,27.15
2022-09-15T12:55:03.438Z,27.14
2022-09-15T12:56:08.559Z,27.09
2022-09-15T12:57:23.027Z,27.15
2022-09-15T12:58:33.333Z,27.14
2022-09-15T12:59:35.211Z,27.13
2022-09-15T13:00:42.497Z,27.11
2022-09-15T13:01:57.781Z,27.14
2022-09-15T13:03:01.904Z,27.13
2022-09-15T13:04:03.781Z,27.13
2022-09-15T13:05:08.890Z,27.11
2022-09-15T13:06:10.561Z,27.10
2022-09-15T13:07:15.292Z,27.08
2022-09-15T13:08:29.107Z,27.10
2022-09-15T13:09:44.131Z,27.13
2022-09-15T13:11:23.522Z,27.19
2022-09-15T13:12:33.804Z,27.15
2022-09-15T13:13:58.399Z,27.22
2022-09-15T13:15:04.099Z,27.18
2022-09-15T13:16:12.210Z,27.15
2022-09-15T13:17:25.192Z,27.15
2022-09-15T13:18:30.991Z,27.14
2022-09-15T13:19:41.317Z,27.12
2022-09-15T13:20:53.993Z,27.13
2022-09-15T13:22:05.043Z,27.06
2022-09-15T13:23:12.899Z,27.14
2022-09-15T13:24:20.333Z,27.10
2022-09-15T13:25:28.279Z,27.11
2022-09-15T13:26:31.823Z,27.11
2022-09-15T13:27:39.877Z,27.09
2022-09-15T13:28:42.521Z,27.05
2022-09-15T13:30:10.134Z,27.11
2022-09-15T13:31:19.945Z,27.15
2022-09-15T13:32:44.839Z,27.14
2022-09-15T13:35:42.366Z,27.22
2022-09-15T13:39:24.983Z,27.26
2022-09-15T13:40:54.502Z,27.28
2022-09-15T13:42:24.236Z,27.23
2022-09-15T13:43:31.867Z,27.22
2022-09-15T13:45:12.011Z,27.20
2022-09-15T13:46:32.726Z,27.21
2022-09-15T13:47:51.501Z,27.18
2022-09-15T13:49:14.447Z,27.18
2022-09-15T13:50:31.262Z,27.17
2022-09-15T13:51:34.767Z,27.16
2022-09-15T13:52:47.891Z,27.12
2022-09-15T13:53:59.764Z,27.12
2022-09-15T13:55:28.532Z,27.16
2022-09-15T13:56:35.680Z,27.07
2022-09-15T13:59:14.061Z,27.16
2022-09-15T14:00:46.234Z,27.08
2022-09-15T14:01:48.181Z,27.18
2022-09-15T14:02:54.777Z,27.12
2022-09-15T14:04:00.895Z,27.12
2022-09-15T14:05:02.835Z,27.06
2022-09-15T14:06:18.270Z,27.11
2022-09-15T14:07:24.597Z,27.11
2022-09-15T14:08:32.479Z,27.09
2022-09-15T14:09:44.820Z,27.12
2022-09-15T14:10:52.239Z,27.11
2022-09-15T14:11:57.942Z,27.09
2022-09-15T14:13:01.515Z,27.10
2022-09-15T14:14:10.386Z,27.09
2022-09-15T14:15:18.389Z,27.10
2022-09-15T14:16:27.997Z,27.11
2022-09-15T14:17:31.608Z,27.13
2022-09-15T14:18:53.117Z,27.14
2022-09-15T14:19:58.527Z,27.14
2022-09-15T14:21:02.099Z,27.14
2022-09-15T14:22:28.772Z,27.16
2022-09-15T14:23:31.564Z,27.16
2022-09-15T14:24:33.381Z,27.09
2022-09-15T14:25:35.184Z,27.11
2022-09-15T14:26:37.435Z,27.03
2022-09-15T14:27:44.254Z,27.09
2022-09-15T14:28:52.322Z,27.10
2022-09-15T14:29:55.536Z,27.09
2022-09-15T14:30:57.324Z,27.10
2022-09-15T14:32:01.857Z,27.04
2022-09-15T14:33:04.179Z,27.10
2022-09-15T14:34:14.551Z,27.09
2022-09-15T14:35:20.444Z,27.11